sensor_id;sensor_type;location;lat;lon;timestamp;P1;durP1;ratioP1;P2;durP2;ratioP2
71294;SDS011;59080;31.686;73.862;2022-07-23T00:30:34;39.40;;;27.48;;
71294;SDS011;59080;31.686;73.862;2022-07-23T00:33:05;42.30;;;27.77;;
71294;SDS011;59080;31.686;73.862;2022-07-23T00:35:34;42.97;;;26.38;;
71294;SDS011;59080;31.686;73.862;2022-07-23T00:38:06;38.85;;;27.88;;
71294;SDS011;59080;31.686;73.862;2022-07-23T00:40:36;41.58;;;26.80;;
71294;SDS011;59080;31.686;73.862;2022-07-23T00:43:05;43.50;;;27.60;;
71294;SDS011;59080;31.686;73.862;2022-07-23T00:45:33;44.28;;;27.40;;
71294;SDS011;59080;31.686;73.862;2022-07-23T00:48:01;42.35;;;27.58;;
71294;SDS011;59080;31.686;73.862;2022-07-23T00:50:29;44.92;;;28.23;;
71294;SDS011;59080;31.686;73.862;2022-07-23T00:52:57;40.38;;;26.48;;
71294;SDS011;59080;31.686;73.862;2022-07-23T00:55:29;45.88;;;27.15;;
71294;SDS011;59080;31.686;73.862;2022-07-23T00:57:56;42.03;;;28.65;;
71294;SDS011;59080;31.686;73.862;2022-07-23T01:00:24;42.78;;;29.67;;
71294;SDS011;59080;31.686;73.862;2022-07-23T01:02:55;39.50;;;27.25;;
71294;SDS011;59080;31.686;73.862;2022-07-23T01:07:54;44.05;;;29.20;;
71294;SDS011;59080;31.686;73.862;2022-07-23T01:10:22;42.30;;;29.55;;
71294;SDS011;59080;31.686;73.862;2022-07-23T01:13:01;44.30;;;28.95;;
71294;SDS011;59080;31.686;73.862;2022-07-23T01:15:29;44.00;;;30.23;;
71294;SDS011;59080;31.686;73.862;2022-07-23T02:31:33;145.45;;;85.05;;
71294;SDS011;59080;31.686;73.862;2022-07-23T02:34:02;140.55;;;84.85;;
71294;SDS011;59080;31.686;73.862;2022-07-23T02:36:32;130.07;;;80.50;;
71294;SDS011;59080;31.686;73.862;2022-07-23T02:39:02;144.57;;;84.03;;
71294;SDS011;59080;31.686;73.862;2022-07-23T02:41:33;145.98;;;87.20;;
71294;SDS011;59080;31.686;73.862;2022-07-23T02:44:01;136.98;;;81.82;;
71294;SDS011;59080;31.686;73.862;2022-07-23T02:46:32;130.35;;;80.72;;
71294;SDS011;59080;31.686;73.862;2022-07-23T02:49:02;162.90;;;95.22;;
71294;SDS011;59080;31.686;73.862;2022-07-23T02:51:36;164.38;;;97.05;;
71294;SDS011;59080;31.686;73.862;2022-07-23T02:54:07;172.95;;;102.00;;
71294;SDS011;59080;31.686;73.862;2022-07-23T02:56:37;126.32;;;74.57;;
71294;SDS011;59080;31.686;73.862;2022-07-23T03:15:14;131.15;;;82.05;;
71294;SDS011;59080;31.686;73.862;2022-07-23T04:30:26;119.23;;;73.40;;
71294;SDS011;59080;31.686;73.862;2022-07-23T04:32:55;182.93;;;100.38;;
71294;SDS011;59080;31.686;73.862;2022-07-23T04:35:26;201.02;;;110.45;;
71294;SDS011;59080;31.686;73.862;2022-07-23T04:38:03;202.05;;;115.13;;
71294;SDS011;59080;31.686;73.862;2022-07-23T04:40:33;175.27;;;97.20;;
71294;SDS011;59080;31.686;73.862;2022-07-23T04:43:03;181.13;;;99.57;;
71294;SDS011;59080;31.686;73.862;2022-07-23T04:45:37;171.65;;;100.78;;
71294;SDS011;59080;31.686;73.862;2022-07-23T04:48:07;176.43;;;97.55;;
71294;SDS011;59080;31.686;73.862;2022-07-23T04:50:39;165.10;;;95.13;;
71294;SDS011;59080;31.686;73.862;2022-07-23T04:53:16;169.48;;;97.97;;
71294;SDS011;59080;31.686;73.862;2022-07-23T04:55:48;135.10;;;82.05;;
71294;SDS011;59080;31.686;73.862;2022-07-23T04:58:16;114.78;;;72.55;;
71294;SDS011;59080;31.686;73.862;2022-07-23T05:00:45;128.25;;;75.40;;
71294;SDS011;59080;31.686;73.862;2022-07-23T05:03:16;97.05;;;57.20;;
71294;SDS011;59080;31.686;73.862;2022-07-23T05:05:46;40.40;;;27.73;;
71294;SDS011;59080;31.686;73.862;2022-07-23T05:08:17;43.43;;;26.03;;
71294;SDS011;59080;31.686;73.862;2022-07-23T05:10:50;26.55;;;16.55;;
71294;SDS011;59080;31.686;73.862;2022-07-23T05:13:20;16.45;;;12.00;;
71294;SDS011;59080;31.686;73.862;2022-07-23T05:15:51;22.87;;;14.30;;
71294;SDS011;59080;31.686;73.862;2022-07-23T07:28:43;15.75;;;10.88;;
71294;SDS011;59080;31.686;73.862;2022-07-23T07:31:12;20.33;;;12.09;;
71294;SDS011;59080;31.686;73.862;2022-07-23T07:33:43;18.55;;;11.50;;
71294;SDS011;59080;31.686;73.862;2022-07-23T07:36:12;17.02;;;11.52;;
71294;SDS011;59080;31.686;73.862;2022-07-23T07:38:40;18.13;;;11.60;;
71294;SDS011;59080;31.686;73.862;2022-07-23T07:41:09;16.67;;;11.48;;
71294;SDS011;59080;31.686;73.862;2022-07-23T07:43:37;17.60;;;12.70;;
71294;SDS011;59080;31.686;73.862;2022-07-23T07:46:05;20.52;;;13.68;;
71294;SDS011;59080;31.686;73.862;2022-07-23T07:48:36;23.23;;;13.90;;
71294;SDS011;59080;31.686;73.862;2022-07-23T07:51:07;26.33;;;17.35;;
71294;SDS011;59080;31.686;73.862;2022-07-23T07:53:35;31.23;;;20.92;;
71294;SDS011;59080;31.686;73.862;2022-07-23T07:56:06;27.13;;;19.27;;
71294;SDS011;59080;31.686;73.862;2022-07-23T07:58:35;25.50;;;19.05;;
71294;SDS011;59080;31.686;73.862;2022-07-23T08:01:03;29.48;;;20.63;;
71294;SDS011;59080;31.686;73.862;2022-07-23T08:03:31;27.10;;;18.52;;
71294;SDS011;59080;31.686;73.862;2022-07-23T08:06:00;31.17;;;20.05;;
71294;SDS011;59080;31.686;73.862;2022-07-23T08:08:27;26.15;;;19.40;;
71294;SDS011;59080;31.686;73.862;2022-07-23T08:10:56;27.90;;;19.45;;
71294;SDS011;59080;31.686;73.862;2022-07-23T08:13:24;27.73;;;19.27;;
71294;SDS011;59080;31.686;73.862;2022-07-23T08:15:53;29.48;;;18.73;;
71294;SDS011;59080;31.686;73.862;2022-07-23T08:18:20;28.77;;;18.80;;
71294;SDS011;59080;31.686;73.862;2022-07-23T08:20:50;25.85;;;17.17;;
71294;SDS011;59080;31.686;73.862;2022-07-23T08:23:22;27.75;;;14.60;;
71294;SDS011;59080;31.686;73.862;2022-07-23T09:01:40;62.13;;;30.38;;
71294;SDS011;59080;31.686;73.862;2022-07-23T09:04:08;53.90;;;25.48;;
71294;SDS011;59080;31.686;73.862;2022-07-23T09:06:38;45.05;;;20.52;;
71294;SDS011;59080;31.686;73.862;2022-07-23T09:09:19;32.65;;;16.73;;
71294;SDS011;59080;31.686;73.862;2022-07-23T09:14:45;29.98;;;15.30;;
71294;SDS011;59080;31.686;73.862;2022-07-23T09:17:18;28.92;;;15.70;;
71294;SDS011;59080;31.686;73.862;2022-07-23T09:19:46;30.55;;;17.65;;
71294;SDS011;59080;31.686;73.862;2022-07-23T09:22:22;29.80;;;17.23;;
71294;SDS011;59080;31.686;73.862;2022-07-23T09:25:05;33.88;;;16.70;;
71294;SDS011;59080;31.686;73.862;2022-07-23T09:27:48;27.92;;;17.25;;
71294;SDS011;59080;31.686;73.862;2022-07-23T09:30:20;25.77;;;15.15;;
71294;SDS011;59080;31.686;73.862;2022-07-23T09:33:23;27.38;;;14.68;;
71294;SDS011;59080;31.686;73.862;2022-07-23T09:35:50;21.80;;;14.02;;
71294;SDS011;59080;31.686;73.862;2022-07-23T09:38:26;21.60;;;13.10;;
71294;SDS011;59080;31.686;73.862;2022-07-23T09:41:07;25.17;;;14.75;;
71294;SDS011;59080;31.686;73.862;2022-07-23T09:43:39;29.17;;;15.60;;
71294;SDS011;59080;31.686;73.862;2022-07-23T09:49:13;22.38;;;13.70;;
71294;SDS011;59080;31.686;73.862;2022-07-23T09:51:44;22.90;;;14.23;;
71294;SDS011;59080;31.686;73.862;2022-07-23T09:54:28;20.40;;;14.02;;
71294;SDS011;59080;31.686;73.862;2022-07-23T09:57:08;23.10;;;14.70;;
71294;SDS011;59080;31.686;73.862;2022-07-23T09:59:43;24.05;;;14.63;;
71294;SDS011;59080;31.686;73.862;2022-07-23T10:02:15;21.42;;;14.05;;
71294;SDS011;59080;31.686;73.862;2022-07-23T10:05:09;24.08;;;14.50;;
71294;SDS011;59080;31.686;73.862;2022-07-23T10:08:03;25.50;;;15.90;;
71294;SDS011;59080;31.686;73.862;2022-07-23T10:10:52;23.58;;;15.02;;
71294;SDS011;59080;31.686;73.862;2022-07-23T10:13:42;22.90;;;14.65;;
71294;SDS011;59080;31.686;73.862;2022-07-23T10:16:40;19.80;;;14.43;;
71294;SDS011;59080;31.686;73.862;2022-07-23T10:19:09;22.80;;;14.82;;
71294;SDS011;59080;31.686;73.862;2022-07-23T10:21:45;22.90;;;16.02;;
71294;SDS011;59080;31.686;73.862;2022-07-23T10:24:18;25.63;;;15.23;;
71294;SDS011;59080;31.686;73.862;2022-07-23T10:30:06;25.45;;;15.18;;
71294;SDS011;59080;31.686;73.862;2022-07-23T10:32:45;25.70;;;16.80;;
71294;SDS011;59080;31.686;73.862;2022-07-23T10:38:13;30.33;;;18.80;;
71294;SDS011;59080;31.686;73.862;2022-07-23T10:43:23;32.22;;;20.00;;
71294;SDS011;59080;31.686;73.862;2022-07-23T10:45:55;31.15;;;20.50;;
71294;SDS011;59080;31.686;73.862;2022-07-23T11:02:36;36.40;;;22.30;;
71294;SDS011;59080;31.686;73.862;2022-07-23T11:05:07;35.35;;;22.55;;
71294;SDS011;59080;31.686;73.862;2022-07-23T11:08:10;32.47;;;21.92;;
71294;SDS011;59080;31.686;73.862;2022-07-23T11:32:03;43.53;;;28.45;;
71294;SDS011;59080;31.686;73.862;2022-07-23T11:34:41;45.35;;;28.52;;
71294;SDS011;59080;31.686;73.862;2022-07-23T11:37:26;51.20;;;30.00;;
71294;SDS011;59080;31.686;73.862;2022-07-23T11:40:09;59.05;;;31.92;;
71294;SDS011;59080;31.686;73.862;2022-07-23T11:42:53;48.88;;;30.02;;
71294;SDS011;59080;31.686;73.862;2022-07-23T11:45:24;51.27;;;32.43;;
71294;SDS011;59080;31.686;73.862;2022-07-23T11:48:03;56.38;;;32.58;;
71294;SDS011;59080;31.686;73.862;2022-07-23T11:50:33;53.22;;;34.13;;
71294;SDS011;59080;31.686;73.862;2022-07-23T11:53:02;54.05;;;34.00;;
71294;SDS011;59080;31.686;73.862;2022-07-23T11:55:30;54.13;;;34.45;;
71294;SDS011;59080;31.686;73.862;2022-07-23T11:57:58;60.05;;;34.30;;
71294;SDS011;59080;31.686;73.862;2022-07-23T12:00:28;60.15;;;35.22;;
71294;SDS011;59080;31.686;73.862;2022-07-23T12:02:59;49.75;;;32.80;;
71294;SDS011;59080;31.686;73.862;2022-07-23T12:17:09;57.90;;;34.30;;
71294;SDS011;59080;31.686;73.862;2022-07-23T12:19:40;56.95;;;35.53;;
71294;SDS011;59080;31.686;73.862;2022-07-23T12:22:13;56.10;;;34.70;;
71294;SDS011;59080;31.686;73.862;2022-07-23T12:24:57;54.40;;;33.95;;
71294;SDS011;59080;31.686;73.862;2022-07-23T12:27:29;62.20;;;36.28;;
71294;SDS011;59080;31.686;73.862;2022-07-23T12:29:57;59.33;;;37.50;;
71294;SDS011;59080;31.686;73.862;2022-07-23T12:32:26;64.53;;;38.75;;
71294;SDS011;59080;31.686;73.862;2022-07-23T12:35:08;84.80;;;45.00;;
71294;SDS011;59080;31.686;73.862;2022-07-23T12:37:38;80.18;;;43.35;;
71294;SDS011;59080;31.686;73.862;2022-07-23T12:40:24;81.85;;;44.65;;
71294;SDS011;59080;31.686;73.862;2022-07-23T12:42:55;78.82;;;44.75;;
71294;SDS011;59080;31.686;73.862;2022-07-23T12:48:01;64.30;;;39.25;;
71294;SDS011;59080;31.686;73.862;2022-07-23T12:50:43;65.95;;;37.28;;
71294;SDS011;59080;31.686;73.862;2022-07-23T12:53:24;56.13;;;34.38;;
71294;SDS011;59080;31.686;73.862;2022-07-23T12:56:00;57.28;;;34.60;;
71294;SDS011;59080;31.686;73.862;2022-07-23T12:58:45;50.30;;;31.45;;
71294;SDS011;59080;31.686;73.862;2022-07-23T13:03:58;55.00;;;34.90;;
71294;SDS011;59080;31.686;73.862;2022-07-23T13:06:31;53.15;;;35.05;;
71294;SDS011;59080;31.686;73.862;2022-07-23T13:09:02;48.28;;;32.17;;
71294;SDS011;59080;31.686;73.862;2022-07-23T13:11:32;47.03;;;31.92;;
71294;SDS011;59080;31.686;73.862;2022-07-23T13:14:01;47.20;;;31.95;;
71294;SDS011;59080;31.686;73.862;2022-07-23T13:16:30;47.45;;;31.17;;
71294;SDS011;59080;31.686;73.862;2022-07-23T13:18:59;47.08;;;30.23;;
71294;SDS011;59080;31.686;73.862;2022-07-23T13:21:30;41.80;;;29.70;;
71294;SDS011;59080;31.686;73.862;2022-07-23T13:24:02;42.67;;;28.55;;
71294;SDS011;59080;31.686;73.862;2022-07-23T13:26:48;51.15;;;29.45;;
71294;SDS011;59080;31.686;73.862;2022-07-23T13:29:16;39.50;;;27.98;;
71294;SDS011;59080;31.686;73.862;2022-07-23T13:31:45;47.28;;;30.98;;
71294;SDS011;59080;31.686;73.862;2022-07-23T13:34:16;40.25;;;29.92;;
71294;SDS011;59080;31.686;73.862;2022-07-23T13:36:44;43.15;;;28.25;;
71294;SDS011;59080;31.686;73.862;2022-07-23T13:39:12;36.22;;;27.23;;
71294;SDS011;59080;31.686;73.862;2022-07-23T13:41:41;41.83;;;27.42;;
71294;SDS011;59080;31.686;73.862;2022-07-23T13:44:09;37.75;;;26.50;;
71294;SDS011;59080;31.686;73.862;2022-07-23T13:46:38;42.65;;;27.88;;
71294;SDS011;59080;31.686;73.862;2022-07-23T13:49:06;44.08;;;27.65;;
71294;SDS011;59080;31.686;73.862;2022-07-23T13:51:34;40.00;;;27.95;;
71294;SDS011;59080;31.686;73.862;2022-07-23T13:54:03;41.50;;;27.15;;
71294;SDS011;59080;31.686;73.862;2022-07-23T13:56:32;41.35;;;26.65;;
71294;SDS011;59080;31.686;73.862;2022-07-23T13:59:00;45.03;;;28.67;;
71294;SDS011;59080;31.686;73.862;2022-07-23T14:01:29;41.00;;;28.30;;
71294;SDS011;59080;31.686;73.862;2022-07-23T14:03:58;39.28;;;28.42;;
71294;SDS011;59080;31.686;73.862;2022-07-23T14:06:27;39.45;;;28.30;;
71294;SDS011;59080;31.686;73.862;2022-07-23T14:08:56;40.58;;;27.20;;
71294;SDS011;59080;31.686;73.862;2022-07-23T14:11:25;42.28;;;29.70;;
71294;SDS011;59080;31.686;73.862;2022-07-23T14:13:54;49.10;;;29.27;;
71294;SDS011;59080;31.686;73.862;2022-07-23T14:16:25;46.22;;;30.15;;
71294;SDS011;59080;31.686;73.862;2022-07-23T14:18:53;50.63;;;33.65;;
71294;SDS011;59080;31.686;73.862;2022-07-23T14:21:21;53.75;;;36.55;;
71294;SDS011;59080;31.686;73.862;2022-07-23T14:23:49;55.67;;;39.15;;
71294;SDS011;59080;31.686;73.862;2022-07-23T14:26:18;62.70;;;41.30;;
71294;SDS011;59080;31.686;73.862;2022-07-23T14:28:46;60.90;;;40.30;;
71294;SDS011;59080;31.686;73.862;2022-07-23T14:31:14;57.45;;;38.42;;
71294;SDS011;59080;31.686;73.862;2022-07-23T14:33:43;54.90;;;37.50;;
71294;SDS011;59080;31.686;73.862;2022-07-23T14:36:11;61.67;;;38.63;;
71294;SDS011;59080;31.686;73.862;2022-07-23T14:38:39;55.00;;;37.42;;
71294;SDS011;59080;31.686;73.862;2022-07-23T14:41:10;60.28;;;38.70;;
71294;SDS011;59080;31.686;73.862;2022-07-23T14:43:38;59.30;;;37.50;;
71294;SDS011;59080;31.686;73.862;2022-07-23T14:46:07;54.38;;;37.78;;
71294;SDS011;59080;31.686;73.862;2022-07-23T14:48:36;66.60;;;39.83;;
71294;SDS011;59080;31.686;73.862;2022-07-23T14:51:04;60.88;;;38.90;;
71294;SDS011;59080;31.686;73.862;2022-07-23T14:53:32;62.80;;;40.78;;
71294;SDS011;59080;31.686;73.862;2022-07-23T14:56:00;57.38;;;36.05;;
71294;SDS011;59080;31.686;73.862;2022-07-23T14:58:29;61.75;;;38.55;;
71294;SDS011;59080;31.686;73.862;2022-07-23T15:00:57;59.78;;;39.33;;
71294;SDS011;59080;31.686;73.862;2022-07-23T15:03:26;56.83;;;40.28;;
71294;SDS011;59080;31.686;73.862;2022-07-23T15:05:54;68.53;;;41.95;;
71294;SDS011;59080;31.686;73.862;2022-07-23T15:08:23;58.30;;;38.05;;
71294;SDS011;59080;31.686;73.862;2022-07-23T15:10:51;62.17;;;39.63;;
71294;SDS011;59080;31.686;73.862;2022-07-23T15:13:19;66.70;;;39.95;;
71294;SDS011;59080;31.686;73.862;2022-07-23T15:15:47;57.80;;;38.85;;
71294;SDS011;59080;31.686;73.862;2022-07-23T15:18:15;54.80;;;39.45;;
71294;SDS011;59080;31.686;73.862;2022-07-23T15:20:47;59.40;;;40.50;;
71294;SDS011;59080;31.686;73.862;2022-07-23T15:23:16;62.00;;;41.55;;
71294;SDS011;59080;31.686;73.862;2022-07-23T15:25:44;62.70;;;42.13;;
71294;SDS011;59080;31.686;73.862;2022-07-23T15:28:26;67.82;;;46.55;;
71294;SDS011;59080;31.686;73.862;2022-07-23T15:31:07;83.45;;;52.67;;
71294;SDS011;59080;31.686;73.862;2022-07-23T15:33:42;96.68;;;59.15;;
71294;SDS011;59080;31.686;73.862;2022-07-23T15:36:50;96.07;;;57.45;;
71294;SDS011;59080;31.686;73.862;2022-07-23T15:39:22;84.00;;;55.03;;
71294;SDS011;59080;31.686;73.862;2022-07-23T15:41:50;76.70;;;50.03;;
71294;SDS011;59080;31.686;73.862;2022-07-23T15:44:18;65.88;;;40.95;;
71294;SDS011;59080;31.686;73.862;2022-07-23T15:50:07;32.47;;;21.85;;
71294;SDS011;59080;31.686;73.862;2022-07-23T15:58:57;17.70;;;11.80;;
71294;SDS011;59080;31.686;73.862;2022-07-23T16:01:25;14.68;;;11.52;;
71294;SDS011;59080;31.686;73.862;2022-07-23T16:03:56;13.20;;;11.20;;
71294;SDS011;59080;31.686;73.862;2022-07-23T16:06:26;18.02;;;11.63;;
71294;SDS011;59080;31.686;73.862;2022-07-23T16:08:55;15.40;;;11.10;;
71294;SDS011;59080;31.686;73.862;2022-07-23T16:11:23;19.33;;;11.52;;
71294;SDS011;59080;31.686;73.862;2022-07-23T16:13:52;16.88;;;11.35;;
71294;SDS011;59080;31.686;73.862;2022-07-23T16:16:22;16.38;;;11.07;;
71294;SDS011;59080;31.686;73.862;2022-07-23T16:18:54;17.35;;;10.65;;
71294;SDS011;59080;31.686;73.862;2022-07-23T16:25:27;18.67;;;10.82;;
71294;SDS011;59080;31.686;73.862;2022-07-23T16:29:00;12.70;;;10.57;;
71294;SDS011;59080;31.686;73.862;2022-07-23T16:32:40;14.05;;;11.32;;
71294;SDS011;59080;31.686;73.862;2022-07-23T16:35:09;17.17;;;11.93;;
71294;SDS011;59080;31.686;73.862;2022-07-23T16:37:40;18.38;;;11.38;;
71294;SDS011;59080;31.686;73.862;2022-07-23T16:40:09;16.05;;;10.95;;
71294;SDS011;59080;31.686;73.862;2022-07-23T16:42:42;16.58;;;11.68;;
71294;SDS011;59080;31.686;73.862;2022-07-23T16:45:12;13.35;;;10.65;;
71294;SDS011;59080;31.686;73.862;2022-07-23T16:50:57;14.38;;;10.82;;
71294;SDS011;59080;31.686;73.862;2022-07-23T16:53:25;17.70;;;11.32;;
71294;SDS011;59080;31.686;73.862;2022-07-23T16:55:54;15.60;;;11.88;;
71294;SDS011;59080;31.686;73.862;2022-07-23T16:58:22;17.27;;;12.50;;
71294;SDS011;59080;31.686;73.862;2022-07-23T17:00:51;15.40;;;12.10;;
71294;SDS011;59080;31.686;73.862;2022-07-23T17:03:20;16.05;;;12.25;;
71294;SDS011;59080;31.686;73.862;2022-07-23T17:05:50;14.88;;;12.35;;
71294;SDS011;59080;31.686;73.862;2022-07-23T17:08:19;16.88;;;13.60;;
71294;SDS011;59080;31.686;73.862;2022-07-23T17:10:48;14.95;;;13.18;;
71294;SDS011;59080;31.686;73.862;2022-07-23T17:13:20;14.10;;;12.57;;
71294;SDS011;59080;31.686;73.862;2022-07-23T17:15:49;17.38;;;14.02;;
71294;SDS011;59080;31.686;73.862;2022-07-23T17:18:24;16.95;;;14.27;;
71294;SDS011;59080;31.686;73.862;2022-07-23T17:21:22;31.92;;;20.88;;
71294;SDS011;59080;31.686;73.862;2022-07-23T17:27:48;56.42;;;34.47;;
71294;SDS011;59080;31.686;73.862;2022-07-23T17:43:48;77.93;;;52.70;;
71294;SDS011;59080;31.686;73.862;2022-07-23T17:46:17;86.63;;;52.67;;
71294;SDS011;59080;31.686;73.862;2022-07-23T17:48:45;82.13;;;52.17;;
71294;SDS011;59080;31.686;73.862;2022-07-23T17:51:14;87.68;;;50.30;;
71294;SDS011;59080;31.686;73.862;2022-07-23T17:53:42;90.88;;;54.67;;
71294;SDS011;59080;31.686;73.862;2022-07-23T17:56:10;79.60;;;51.70;;
71294;SDS011;59080;31.686;73.862;2022-07-23T17:58:39;85.53;;;52.70;;
71294;SDS011;59080;31.686;73.862;2022-07-23T18:01:07;94.35;;;52.60;;
71294;SDS011;59080;31.686;73.862;2022-07-23T18:03:35;85.63;;;49.95;;
71294;SDS011;59080;31.686;73.862;2022-07-23T18:06:06;79.43;;;49.43;;
71294;SDS011;59080;31.686;73.862;2022-07-23T18:08:35;77.53;;;47.75;;
71294;SDS011;59080;31.686;73.862;2022-07-23T18:11:04;75.43;;;45.92;;
71294;SDS011;59080;31.686;73.862;2022-07-23T18:13:32;70.28;;;43.92;;
71294;SDS011;59080;31.686;73.862;2022-07-23T18:16:01;74.80;;;42.65;;
71294;SDS011;59080;31.686;73.862;2022-07-23T18:18:28;68.28;;;40.10;;
71294;SDS011;59080;31.686;73.862;2022-07-23T18:20:56;64.35;;;39.30;;
71294;SDS011;59080;31.686;73.862;2022-07-23T18:23:24;68.15;;;37.25;;
71294;SDS011;59080;31.686;73.862;2022-07-23T18:25:53;59.85;;;37.08;;
71294;SDS011;59080;31.686;73.862;2022-07-23T18:28:21;67.47;;;35.88;;
71294;SDS011;59080;31.686;73.862;2022-07-23T18:30:49;61.17;;;34.75;;
71294;SDS011;59080;31.686;73.862;2022-07-23T18:33:18;62.80;;;36.20;;
71294;SDS011;59080;31.686;73.862;2022-07-23T18:35:46;71.95;;;34.22;;
71294;SDS011;59080;31.686;73.862;2022-07-23T18:38:14;60.55;;;34.55;;
71294;SDS011;59080;31.686;73.862;2022-07-23T18:40:43;60.67;;;33.72;;
71294;SDS011;59080;31.686;73.862;2022-07-23T18:43:12;54.95;;;33.65;;
71294;SDS011;59080;31.686;73.862;2022-07-23T18:45:40;58.47;;;32.95;;
71294;SDS011;59080;31.686;73.862;2022-07-23T18:48:09;58.95;;;33.47;;
71294;SDS011;59080;31.686;73.862;2022-07-23T18:50:37;58.70;;;32.88;;
71294;SDS011;59080;31.686;73.862;2022-07-23T18:53:07;55.08;;;34.70;;
71294;SDS011;59080;31.686;73.862;2022-07-23T18:55:34;65.30;;;34.72;;
71294;SDS011;59080;31.686;73.862;2022-07-23T18:58:04;60.53;;;34.20;;
71294;SDS011;59080;31.686;73.862;2022-07-23T19:00:33;66.45;;;35.47;;
71294;SDS011;59080;31.686;73.862;2022-07-23T19:03:04;71.13;;;37.65;;
71294;SDS011;59080;31.686;73.862;2022-07-23T19:05:32;84.25;;;41.50;;
71294;SDS011;59080;31.686;73.862;2022-07-23T19:08:00;80.60;;;43.38;;
71294;SDS011;59080;31.686;73.862;2022-07-23T19:10:28;79.45;;;41.75;;
71294;SDS011;59080;31.686;73.862;2022-07-23T19:12:56;78.95;;;40.40;;
71294;SDS011;59080;31.686;73.862;2022-07-23T19:15:24;71.97;;;41.67;;
71294;SDS011;59080;31.686;73.862;2022-07-23T19:17:53;76.95;;;40.42;;
71294;SDS011;59080;31.686;73.862;2022-07-23T19:20:21;74.93;;;39.00;;
71294;SDS011;59080;31.686;73.862;2022-07-23T19:22:51;91.65;;;45.83;;
71294;SDS011;59080;31.686;73.862;2022-07-23T19:25:20;85.82;;;44.83;;
71294;SDS011;59080;31.686;73.862;2022-07-23T19:27:48;86.95;;;46.95;;
71294;SDS011;59080;31.686;73.862;2022-07-23T19:30:17;70.97;;;40.40;;
71294;SDS011;59080;31.686;73.862;2022-07-23T19:32:45;73.45;;;39.92;;
71294;SDS011;59080;31.686;73.862;2022-07-23T19:35:13;70.10;;;38.05;;
71294;SDS011;59080;31.686;73.862;2022-07-23T19:37:41;80.57;;;45.63;;
71294;SDS011;59080;31.686;73.862;2022-07-23T19:40:10;88.60;;;44.50;;
71294;SDS011;59080;31.686;73.862;2022-07-23T19:42:40;81.13;;;43.30;;
71294;SDS011;59080;31.686;73.862;2022-07-23T19:45:08;77.38;;;42.10;;
71294;SDS011;59080;31.686;73.862;2022-07-23T19:47:37;80.55;;;44.45;;
71294;SDS011;59080;31.686;73.862;2022-07-23T19:50:11;78.97;;;46.10;;
71294;SDS011;59080;31.686;73.862;2022-07-23T19:52:39;79.32;;;45.60;;
71294;SDS011;59080;31.686;73.862;2022-07-23T19:55:09;90.68;;;48.80;;
71294;SDS011;59080;31.686;73.862;2022-07-23T19:57:39;93.95;;;52.95;;
71294;SDS011;59080;31.686;73.862;2022-07-23T20:00:08;109.30;;;58.85;;
71294;SDS011;59080;31.686;73.862;2022-07-23T20:02:38;108.50;;;57.55;;
71294;SDS011;59080;31.686;73.862;2022-07-23T20:05:07;116.82;;;60.60;;
71294;SDS011;59080;31.686;73.862;2022-07-23T20:07:37;109.32;;;59.15;;
71294;SDS011;59080;31.686;73.862;2022-07-23T20:10:07;111.18;;;60.35;;
71294;SDS011;59080;31.686;73.862;2022-07-23T20:12:37;106.78;;;57.90;;
71294;SDS011;59080;31.686;73.862;2022-07-23T20:15:09;102.32;;;56.40;;
71294;SDS011;59080;31.686;73.862;2022-07-23T20:17:38;92.38;;;53.53;;
71294;SDS011;59080;31.686;73.862;2022-07-23T20:20:07;107.97;;;54.88;;
71294;SDS011;59080;31.686;73.862;2022-07-23T20:22:36;97.82;;;52.38;;
71294;SDS011;59080;31.686;73.862;2022-07-23T20:25:04;97.85;;;53.10;;
71294;SDS011;59080;31.686;73.862;2022-07-23T20:27:35;94.22;;;55.03;;
71294;SDS011;59080;31.686;73.862;2022-07-23T20:30:06;93.75;;;54.47;;
71294;SDS011;59080;31.686;73.862;2022-07-23T20:32:35;101.47;;;53.70;;
71294;SDS011;59080;31.686;73.862;2022-07-23T20:35:03;93.72;;;53.40;;
71294;SDS011;59080;31.686;73.862;2022-07-23T20:37:32;91.72;;;53.17;;
71294;SDS011;59080;31.686;73.862;2022-07-23T20:40:00;92.70;;;52.75;;
71294;SDS011;59080;31.686;73.862;2022-07-23T20:42:28;101.82;;;56.80;;
71294;SDS011;59080;31.686;73.862;2022-07-23T20:44:56;103.50;;;61.40;;
71294;SDS011;59080;31.686;73.862;2022-07-23T20:47:25;162.52;;;90.07;;
71294;SDS011;59080;31.686;73.862;2022-07-23T20:49:53;139.70;;;77.85;;
71294;SDS011;59080;31.686;73.862;2022-07-23T20:52:22;170.35;;;94.72;;
71294;SDS011;59080;31.686;73.862;2022-07-23T20:54:50;163.90;;;92.65;;
71294;SDS011;59080;31.686;73.862;2022-07-23T20:57:18;185.75;;;98.30;;
71294;SDS011;59080;31.686;73.862;2022-07-23T20:59:47;195.70;;;103.60;;
71294;SDS011;59080;31.686;73.862;2022-07-23T21:02:16;197.25;;;107.30;;
71294;SDS011;59080;31.686;73.862;2022-07-23T21:04:43;207.77;;;108.57;;
71294;SDS011;59080;31.686;73.862;2022-07-23T21:07:13;205.38;;;107.45;;
71294;SDS011;59080;31.686;73.862;2022-07-23T21:09:41;205.82;;;104.10;;
71294;SDS011;59080;31.686;73.862;2022-07-23T21:12:09;217.65;;;112.57;;
71294;SDS011;59080;31.686;73.862;2022-07-23T21:14:37;204.02;;;106.32;;
71294;SDS011;59080;31.686;73.862;2022-07-23T21:17:05;178.27;;;98.57;;
71294;SDS011;59080;31.686;73.862;2022-07-23T21:19:33;191.88;;;99.03;;
71294;SDS011;59080;31.686;73.862;2022-07-23T21:22:01;170.98;;;95.32;;
71294;SDS011;59080;31.686;73.862;2022-07-23T21:24:29;170.55;;;92.43;;
71294;SDS011;59080;31.686;73.862;2022-07-23T21:26:58;163.68;;;92.78;;
71294;SDS011;59080;31.686;73.862;2022-07-23T21:29:26;151.00;;;84.18;;
71294;SDS011;59080;31.686;73.862;2022-07-23T21:31:55;146.20;;;81.57;;
71294;SDS011;59080;31.686;73.862;2022-07-23T21:34:24;146.18;;;83.47;;
71294;SDS011;59080;31.686;73.862;2022-07-23T21:36:52;140.18;;;79.20;;
71294;SDS011;59080;31.686;73.862;2022-07-23T21:39:20;133.38;;;75.75;;
71294;SDS011;59080;31.686;73.862;2022-07-23T21:41:49;136.57;;;78.03;;
71294;SDS011;59080;31.686;73.862;2022-07-23T21:44:16;128.85;;;73.18;;
71294;SDS011;59080;31.686;73.862;2022-07-23T21:46:45;127.65;;;75.47;;
71294;SDS011;59080;31.686;73.862;2022-07-23T21:49:16;128.90;;;74.68;;
71294;SDS011;59080;31.686;73.862;2022-07-23T21:51:44;118.45;;;70.53;;
71294;SDS011;59080;31.686;73.862;2022-07-23T21:54:12;127.88;;;75.57;;
71294;SDS011;59080;31.686;73.862;2022-07-23T21:56:40;129.32;;;74.55;;
71294;SDS011;59080;31.686;73.862;2022-07-23T21:59:09;134.18;;;79.22;;
71294;SDS011;59080;31.686;73.862;2022-07-23T22:01:37;140.48;;;80.43;;
71294;SDS011;59080;31.686;73.862;2022-07-23T22:04:05;148.65;;;81.80;;
71294;SDS011;59080;31.686;73.862;2022-07-23T22:06:35;134.25;;;81.22;;
71294;SDS011;59080;31.686;73.862;2022-07-23T22:09:04;125.82;;;78.90;;
71294;SDS011;59080;31.686;73.862;2022-07-23T22:11:32;136.10;;;81.63;;